Time;durP1;ratioP1;P1;durP2;ratioP2;P2;SDS_P1;SDS_P2;PMS_P1;PMS_P2;Temp;Humidity;BMP_temperature;BMP_pressure;BME280_temperature;BME280_humidity;BME280_pressure;Samples;Min_cycle;Max_cycle;Signal;HPM_P1;HPM_P2
2023/05/08 00:01:15;;;;;;;;;;;16.20;56.60;;;;;;5029099;28;19921;-75
2023/05/08 00:03:40;;;;;;;;;;;16.20;57.20;;;;;;4995841;28;19924;-76
2023/05/08 00:06:06;;;;;;;;;;;16.10;56.60;;;;;;4994730;28;19976;-75
2023/05/08 00:08:31;;;;;;;;;;;16.10;56.60;;;;;;5028769;28;19940;-76
2023/05/08 00:10:57;;;;;;;;;;;16.10;56.70;;;;;;5006627;28;19916;-75
2023/05/08 00:13:22;;;;;;;;;;;16.10;56.70;;;;;;5027294;28;20685;-75
2023/05/08 00:15:48;;;;;;;;;;;16.00;56.70;;;;;;5010878;28;20004;-75
2023/05/08 00:18:13;;;;;;;;;;;16.00;56.70;;;;;;4992075;28;19921;-75
2023/05/08 00:20:39;;;;;;;;;;;16.00;56.70;;;;;;5007314;28;19931;-76
2023/05/08 00:23:04;;;;;;;;;;;16.00;56.70;;;;;;5010065;28;19917;-75
2023/05/08 00:25:30;;;;;;;;;;;16.00;56.80;;;;;;5009494;28;20015;-75
2023/05/08 00:27:56;;;;;;;;;;;15.90;56.70;;;;;;5007178;28;19925;-76
2023/05/08 00:30:22;;;;;;;;;;;15.90;56.70;;;;;;5006861;28;19925;-76
2023/05/08 00:32:47;;;;;;;;;;;15.90;56.80;;;;;;5012455;28;20526;-75
2023/05/08 00:35:12;;;;;;;;;;;15.90;56.80;;;;;;5023043;28;20467;-76
2023/05/08 00:37:40;;;;;;;;;;;15.90;56.80;;;;;;4993640;28;19952;-75
2023/05/08 00:40:08;;;;;;;;;;;15.80;56.80;;;;;;5012905;28;20683;-76
2023/05/08 00:42:33;;;;;;;;;;;15.80;56.80;;;;;;5035194;28;19964;-75
2023/05/08 00:44:59;;;;;;;;;;;15.80;56.80;;;;;;5011858;28;19991;-75
2023/05/08 00:47:25;;;;;;;;;;;15.80;56.90;;;;;;5030784;28;19928;-75
2023/05/08 00:49:50;;;;;;;;;;;15.80;56.90;;;;;;5015165;28;19928;-76
2023/05/08 00:52:16;;;;;;;;;;;15.80;56.90;;;;;;5032588;28;19920;-76
2023/05/08 00:54:41;;;;;;;;;;;15.80;57.00;;;;;;5011987;28;19928;-75
2023/05/08 00:57:06;;;;;;;;;;;15.70;56.90;;;;;;5010415;28;19921;-75
2023/05/08 00:59:32;;;;;;;;;;;15.70;56.90;;;;;;5016046;28;19920;-75
2023/05/08 01:01:58;;;;;;;;;;;15.60;57.00;;;;;;5013781;28;19964;-75
2023/05/08 01:04:24;;;;;;;;;;;15.60;57.00;;;;;;5017118;28;19921;-74
2023/05/08 01:06:49;;;;;;;;;;;15.60;57.00;;;;;;4998190;28;19921;-77
2023/05/08 01:09:15;;;;;;;;;;;15.60;57.00;;;;;;4999229;28;19935;-75
2023/05/08 01:11:46;;;;;;;;;;;15.60;57.10;;;;;;5031814;28;19921;-76
2023/05/08 01:14:25;;;;;;;;;;;15.50;57.00;;;;;;4996613;28;19924;-75
2023/05/08 01:16:56;;;;;;;;;;;15.50;57.10;;;;;;4998503;28;19927;-76
2023/05/08 01:19:28;;;;;;;;;;;15.50;57.10;;;;;;5028755;28;19917;-75
2023/05/08 01:22:15;;;;;;;;;;;15.50;57.10;;;;;;5025957;28;19921;-77
2023/05/08 01:24:40;;;;;;;;;;;15.40;57.10;;;;;;5011997;28;19925;-76
2023/05/08 01:27:08;;;;;;;;;;;15.40;57.20;;;;;;5029756;28;19917;-76
2023/05/08 01:29:47;;;;;;;;;;;15.40;57.20;;;;;;5034329;28;20012;-75
2023/05/08 01:32:14;;;;;;;;;;;15.30;57.20;;;;;;4998404;28;19921;-76
2023/05/08 01:34:43;;;;;;;;;;;15.30;57.20;;;;;;5016828;28;20408;-75
2023/05/08 01:37:10;;;;;;;;;;;15.30;57.30;;;;;;5013926;28;19925;-76
2023/05/08 01:39:54;;;;;;;;;;;15.30;57.30;;;;;;5012693;28;19928;-79
2023/05/08 01:42:38;;;;;;;;;;;15.30;57.30;;;;;;5013702;28;19925;-75
2023/05/08 01:45:09;;;;;;;;;;;15.30;57.30;;;;;;5026339;28;19960;-78
2023/05/08 01:47:36;;;;;;;;;;;15.20;57.30;;;;;;5017530;28;19928;-76
2023/05/08 01:50:15;;;;;;;;;;;15.20;57.30;;;;;;5012252;28;19925;-77
2023/05/08 01:52:40;;;;;;;;;;;15.20;57.30;;;;;;5000926;28;20020;-75
2023/05/08 01:55:10;;;;;;;;;;;15.20;57.40;;;;;;5026052;28;20546;-78
2023/05/08 01:57:36;;;;;;;;;;;15.10;57.30;;;;;;5009185;28;19925;-76
2023/05/08 02:00:02;;;;;;;;;;;15.10;57.40;;;;;;5012663;28;20347;-76
2023/05/08 02:02:27;;;;;;;;;;;15.10;58.10;;;;;;5031499;28;19982;-76
2023/05/08 02:04:53;;;;;;;;;;;15.10;57.50;;;;;;5016939;28;20020;-75
2023/05/08 02:07:19;;;;;;;;;;;15.10;57.50;;;;;;5018784;28;19991;-75
2023/05/08 02:09:45;;;;;;;;;;;15.00;57.50;;;;;;5015713;28;19987;-76
2023/05/08 02:12:11;;;;;;;;;;;15.00;57.50;;;;;;5011300;28;19921;-76
2023/05/08 02:14:36;;;;;;;;;;;15.00;57.50;;;;;;5031902;28;20007;-75
2023/05/08 02:17:02;;;;;;;;;;;14.90;57.50;;;;;;4998149;28;19932;-75
2023/05/08 02:19:27;;;;;;;;;;;14.90;57.60;;;;;;5011974;28;19927;-76
2023/05/08 02:21:53;;;;;;;;;;;14.90;57.60;;;;;;5007647;28;19994;-76
2023/05/08 02:24:18;;;;;;;;;;;14.90;57.60;;;;;;5011707;28;19932;-75
2023/05/08 02:26:44;;;;;;;;;;;14.90;57.70;;;;;;5009639;28;21493;-76
2023/05/08 02:29:09;;;;;;;;;;;14.80;57.60;;;;;;5009612;28;20010;-75
2023/05/08 02:31:35;;;;;;;;;;;14.80;57.60;;;;;;5010744;28;20281;-76
2023/05/08 02:34:00;;;;;;;;;;;14.80;58.30;;;;;;4998511;28;19928;-75
2023/05/08 02:36:27;;;;;;;;;;;14.80;57.60;;;;;;5010247;28;19959;-76
2023/05/08 02:38:53;;;;;;;;;;;14.80;57.60;;;;;;5011827;28;19921;-75
2023/05/08 02:41:18;;;;;;;;;;;14.80;57.70;;;;;;5008036;28;21001;-76
2023/05/08 02:43:44;;;;;;;;;;;14.80;57.70;;;;;;4995400;28;19967;-76
2023/05/08 02:46:19;;;;;;;;;;;14.70;57.70;;;;;;5027497;28;20699;-75
2023/05/08 02:48:45;;;;;;;;;;;14.70;57.70;;;;;;4993095;28;19974;-76
2023/05/08 02:51:10;;;;;;;;;;;14.70;57.80;;;;;;5025207;28;20578;-76
2023/05/08 02:53:46;;;;;;;;;;;14.70;57.80;;;;;;5017400;28;19921;-76
2023/05/08 02:56:16;;;;;;;;;;;14.70;57.80;;;;;;4998329;28;20641;-74
2023/05/08 02:58:46;;;;;;;;;;;14.70;57.80;;;;;;5008189;28;19921;-76
2023/05/08 03:01:13;;;;;;;;;;;14.60;57.80;;;;;;5027538;28;20019;-78
2023/05/08 03:03:43;;;;;;;;;;;14.60;57.80;;;;;;5013424;28;19925;-78
2023/05/08 03:06:10;;;;;;;;;;;14.60;57.80;;;;;;5010142;28;19925;-77
2023/05/08 03:08:36;;;;;;;;;;;14.60;57.80;;;;;;5008979;28;20015;-77
2023/05/08 03:11:02;;;;;;;;;;;14.60;57.90;;;;;;4997965;28;20015;-77
2023/05/08 03:13:28;;;;;;;;;;;14.60;57.90;;;;;;5018026;28;19936;-75
2023/05/08 03:15:55;;;;;;;;;;;14.60;57.90;;;;;;5008833;28;19921;-77
2023/05/08 03:18:21;;;;;;;;;;;14.60;57.90;;;;;;4997823;28;19928;-76
2023/05/08 03:20:46;;;;;;;;;;;14.60;57.90;;;;;;5009361;28;19947;-76
2023/05/08 03:23:12;;;;;;;;;;;14.60;57.90;;;;;;5010228;28;19982;-77
2023/05/08 03:25:38;;;;;;;;;;;14.60;57.90;;;;;;5007722;28;19928;-76
2023/05/08 03:28:04;;;;;;;;;;;14.60;57.90;;;;;;5009762;28;19928;-75
2023/05/08 03:30:30;;;;;;;;;;;14.60;57.90;;;;;;5010614;28;19925;-75
2023/05/08 03:32:56;;;;;;;;;;;14.60;57.90;;;;;;5012958;28;19956;-77
2023/05/08 03:35:21;;;;;;;;;;;14.60;57.90;;;;;;4994568;28;20016;-76
2023/05/08 03:37:47;;;;;;;;;;;14.60;58.60;;;;;;5011032;28;19925;-76
2023/05/08 03:40:12;;;;;;;;;;;14.50;57.90;;;;;;5009968;28;20741;-78
2023/05/08 03:42:38;;;;;;;;;;;14.50;57.90;;;;;;5008594;28;19964;-76
2023/05/08 03:45:04;;;;;;;;;;;14.50;57.90;;;;;;4995487;28;19920;-75
2023/05/08 03:47:29;;;;;;;;;;;14.50;57.90;;;;;;5010796;28;20013;-76
2023/05/08 03:49:55;;;;;;;;;;;14.50;58.00;;;;;;5009797;28;19943;-75
2023/05/08 03:52:20;;;;;;;;;;;14.50;58.00;;;;;;5010503;28;19986;-76
2023/05/08 03:54:46;;;;;;;;;;;14.50;58.00;;;;;;5021480;28;19921;-76
2023/05/08 03:57:11;;;;;;;;;;;14.50;58.00;;;;;;5003427;28;19925;-76
2023/05/08 03:59:40;;;;;;;;;;;14.40;58.10;;;;;;5017584;28;20480;-76
2023/05/08 04:02:14;;;;;;;;;;;14.40;58.00;;;;;;5005346;28;19971;-75
2023/05/08 04:04:40;;;;;;;;;;;14.40;58.10;;;;;;5009855;28;20335;-75
2023/05/08 04:07:21;;;;;;;;;;;14.40;58.10;;;;;;5010582;28;20404;-76
2023/05/08 04:09:52;;;;;;;;;;;14.40;58.10;;;;;;5009001;28;19936;-76
2023/05/08 04:12:21;;;;;;;;;;;14.40;58.10;;;;;;5026700;28;19925;-75
2023/05/08 04:14:48;;;;;;;;;;;14.40;58.10;;;;;;5008985;28;19921;-76
2023/05/08 04:17:14;;;;;;;;;;;14.40;58.10;;;;;;5008160;28;19943;-76
2023/05/08 04:19:42;;;;;;;;;;;14.40;58.10;;;;;;5011438;28;20528;-75
2023/05/08 04:22:08;;;;;;;;;;;14.40;58.10;;;;;;5009982;28;19994;-76
2023/05/08 04:24:34;;;;;;;;;;;14.40;58.10;;;;;;4997406;28;20017;-76
2023/05/08 04:26:59;;;;;;;;;;;14.30;58.10;;;;;;5011259;28;19943;-76
2023/05/08 04:29:25;;;;;;;;;;;14.30;58.10;;;;;;5011081;28;19964;-76
2023/05/08 04:31:50;;;;;;;;;;;14.30;58.10;;;;;;5023940;28;19921;-76
2023/05/08 04:34:16;;;;;;;;;;;14.30;58.10;;;;;;5010810;28;19987;-76
2023/05/08 04:36:41;;;;;;;;;;;14.30;58.10;;;;;;5010121;28;19931;-75
2023/05/08 04:39:06;;;;;;;;;;;14.30;58.10;;;;;;5009512;28;20023;-77
2023/05/08 04:41:33;;;;;;;;;;;14.30;58.10;;;;;;5026161;28;20020;-76
2023/05/08 04:43:59;;;;;;;;;;;14.30;58.10;;;;;;4989500;28;20477;-76
2023/05/08 04:46:25;;;;;;;;;;;14.30;58.10;;;;;;5012588;28;20394;-75
2023/05/08 04:48:50;;;;;;;;;;;14.30;58.20;;;;;;4994664;28;21320;-76
2023/05/08 04:51:15;;;;;;;;;;;14.30;58.20;;;;;;5009619;28;20375;-76
2023/05/08 04:53:41;;;;;;;;;;;14.30;58.20;;;;;;5009595;28;19985;-76
2023/05/08 04:56:07;;;;;;;;;;;14.30;58.20;;;;;;5026858;28;19933;-76
2023/05/08 04:58:32;;;;;;;;;;;14.30;58.20;;;;;;5011071;28;19921;-76
2023/05/08 05:01:00;;;;;;;;;;;14.30;58.20;;;;;;4994920;28;20798;-76
2023/05/08 05:03:26;;;;;;;;;;;14.30;58.10;;;;;;5023959;28;19985;-75
2023/05/08 05:05:56;;;;;;;;;;;14.30;58.20;;;;;;5027869;28;19933;-76
2023/05/08 05:08:21;;;;;;;;;;;14.40;58.20;;;;;;4996721;28;19921;-75
2023/05/08 05:10:47;;;;;;;;;;;14.40;58.20;;;;;;4993632;28;19921;-75
2023/05/08 05:13:12;;;;;;;;;;;14.40;58.20;;;;;;4995614;28;19983;-75
2023/05/08 05:15:40;;;;;;;;;;;14.40;58.20;;;;;;5025388;28;19921;-76
2023/05/08 05:18:06;;;;;;;;;;;14.40;58.20;;;;;;4995978;28;20747;-76
2023/05/08 05:20:31;;;;;;;;;;;14.40;58.20;;;;;;4994860;28;20011;-76
2023/05/08 05:22:57;;;;;;;;;;;14.40;58.10;;;;;;5010376;28;19921;-77
2023/05/08 05:25:22;;;;;;;;;;;14.40;58.20;;;;;;5001836;28;20666;-75
2023/05/08 05:27:47;;;;;;;;;;;14.40;58.10;;;;;;5033646;28;19921;-77
2023/05/08 05:30:13;;;;;;;;;;;14.40;58.10;;;;;;5015391;28;19927;-78
2023/05/08 05:32:38;;;;;;;;;;;14.50;58.20;;;;;;5029671;28;20674;-76
2023/05/08 05:35:04;;;;;;;;;;;14.50;58.20;;;;;;5016089;28;20556;-75
2023/05/08 05:37:30;;;;;;;;;;;14.50;58.10;;;;;;5032790;28;19924;-76
2023/05/08 05:39:55;;;;;;;;;;;14.50;58.10;;;;;;4999299;28;20003;-76
2023/05/08 05:42:21;;;;;;;;;;;14.50;58.10;;;;;;4997761;28;19921;-76
2023/05/08 05:44:46;;;;;;;;;;;14.50;58.10;;;;;;5032140;28;19920;-78
2023/05/08 05:47:12;;;;;;;;;;;14.50;58.10;;;;;;4998483;28;19971;-78
2023/05/08 05:49:38;;;;;;;;;;;14.50;58.10;;;;;;4992516;28;19925;-76
2023/05/08 05:52:03;;;;;;;;;;;14.60;58.20;;;;;;4999509;28;19931;-75
2023/05/08 05:54:29;;;;;;;;;;;14.50;58.10;;;;;;5014343;28;19921;-78
2023/05/08 05:56:54;;;;;;;;;;;14.50;58.10;;;;;;5030033;28;19956;-76
2023/05/08 05:59:20;;;;;;;;;;;14.50;58.10;;;;;;5012920;28;20401;-76
2023/05/08 06:01:45;;;;;;;;;;;14.50;58.10;;;;;;5028145;28;19925;-78
2023/05/08 06:04:11;;;;;;;;;;;14.60;58.10;;;;;;5008953;28;19924;-77
2023/05/08 06:06:36;;;;;;;;;;;14.60;58.10;;;;;;5008309;28;19921;-75
2023/05/08 06:09:03;;;;;;;;;;;14.60;58.10;;;;;;5009352;28;19967;-77
2023/05/08 06:11:28;;;;;;;;;;;14.60;58.10;;;;;;5011697;28;20013;-77
2023/05/08 06:13:54;;;;;;;;;;;14.60;58.10;;;;;;5012364;28;20006;-77
2023/05/08 06:16:21;;;;;;;;;;;14.60;58.10;;;;;;5011681;28;19921;-77
2023/05/08 06:18:47;;;;;;;;;;;14.60;58.10;;;;;;5001832;28;20185;-77
2023/05/08 06:21:12;;;;;;;;;;;14.60;58.10;;;;;;4997668;28;20005;-77
2023/05/08 06:23:38;;;;;;;;;;;14.70;58.10;;;;;;5013855;28;19912;-77
2023/05/08 06:26:03;;;;;;;;;;;14.60;58.00;;;;;;5015706;28;20015;-77
2023/05/08 06:28:29;;;;;;;;;;;14.70;58.10;;;;;;5013239;28;19933;-77
2023/05/08 06:30:55;;;;;;;;;;;14.70;58.10;;;;;;5029869;28;20438;-77
2023/05/08 06:33:20;;;;;;;;;;;14.70;58.00;;;;;;5008247;28;19921;-77
2023/05/08 06:35:46;;;;;;;;;;;14.80;58.10;;;;;;5013792;28;19921;-77
2023/05/08 06:38:12;;;;;;;;;;;14.80;58.00;;;;;;5010589;28;19924;-77
2023/05/08 06:40:40;;;;;;;;;;;14.80;58.00;;;;;;5013433;28;19928;-77
2023/05/08 06:43:06;;;;;;;;;;;14.90;58.00;;;;;;5013457;28;19952;-78
2023/05/08 06:45:31;;;;;;;;;;;14.90;58.00;;;;;;5004470;28;20036;-78
2023/05/08 06:47:57;;;;;;;;;;;14.90;58.00;;;;;;5026774;28;19996;-77
2023/05/08 06:50:22;;;;;;;;;;;15.00;57.90;;;;;;5026813;28;19925;-77
2023/05/08 06:52:48;;;;;;;;;;;15.10;58.00;;;;;;5011151;28;20027;-77
2023/05/08 06:55:16;;;;;;;;;;;15.10;57.90;;;;;;4995788;28;20242;-77
2023/05/08 06:57:41;;;;;;;;;;;15.10;57.90;;;;;;5010008;28;19928;-77
2023/05/08 07:00:07;;;;;;;;;;;15.20;58.10;;;;;;5008871;28;20667;-76
2023/05/08 07:02:33;;;;;;;;;;;15.30;57.90;;;;;;5011130;28;19935;-78
2023/05/08 07:04:58;;;;;;;;;;;15.30;57.80;;;;;;5023847;28;19928;-76
2023/05/08 07:07:24;;;;;;;;;;;15.30;57.70;;;;;;5028399;28;20032;-77
2023/05/08 07:09:49;;;;;;;;;;;15.40;57.70;;;;;;5029529;28;19925;-78
2023/05/08 07:12:15;;;;;;;;;;;15.50;57.70;;;;;;5010502;28;19921;-77
2023/05/08 07:14:41;;;;;;;;;;;15.50;57.70;;;;;;5030376;28;19921;-77
2023/05/08 07:17:06;;;;;;;;;;;15.60;57.70;;;;;;5011545;28;20575;-76
2023/05/08 07:19:33;;;;;;;;;;;15.60;57.60;;;;;;5011319;28;19921;-77
2023/05/08 07:21:59;;;;;;;;;;;15.70;57.60;;;;;;5030806;28;20580;-78
2023/05/08 07:24:25;;;;;;;;;;;15.70;57.60;;;;;;5026948;28;19916;-76
2023/05/08 07:26:50;;;;;;;;;;;15.80;57.60;;;;;;5013142;28;20252;-77
2023/05/08 07:29:15;;;;;;;;;;;15.80;58.20;;;;;;5010278;28;19921;-76
2023/05/08 07:31:41;;;;;;;;;;;15.80;57.50;;;;;;5024042;28;19928;-77
2023/05/08 07:34:07;;;;;;;;;;;15.90;57.50;;;;;;4993050;28;20461;-76
2023/05/08 07:36:32;;;;;;;;;;;15.90;57.40;;;;;;4994685;28;20775;-76
2023/05/08 07:38:58;;;;;;;;;;;16.00;57.40;;;;;;5007604;28;19928;-77
2023/05/08 07:41:25;;;;;;;;;;;16.00;57.40;;;;;;5009219;28;20016;-76
2023/05/08 07:43:50;;;;;;;;;;;16.00;57.40;;;;;;4994257;28;19917;-76
2023/05/08 07:46:16;;;;;;;;;;;16.10;57.40;;;;;;5011497;28;19928;-75
2023/05/08 07:48:42;;;;;;;;;;;16.10;57.30;;;;;;5007642;28;19952;-75
2023/05/08 07:51:10;;;;;;;;;;;16.20;57.40;;;;;;5008627;28;19929;-75
2023/05/08 07:53:35;;;;;;;;;;;16.20;57.20;;;;;;5009214;28;20044;-77
2023/05/08 07:56:01;;;;;;;;;;;16.30;57.20;;;;;;4993921;28;19917;-76
2023/05/08 07:58:26;;;;;;;;;;;16.30;57.20;;;;;;4999469;28;20007;-75
2023/05/08 08:00:52;;;;;;;;;;;16.30;57.20;;;;;;5028950;28;19959;-76
2023/05/08 08:03:18;;;;;;;;;;;16.40;57.20;;;;;;5011913;28;19925;-76
2023/05/08 08:05:43;;;;;;;;;;;16.40;57.10;;;;;;5009509;28;19967;-76
2023/05/08 08:08:09;;;;;;;;;;;16.50;57.10;;;;;;5011540;28;19951;-76
2023/05/08 08:10:34;;;;;;;;;;;16.50;57.10;;;;;;4994052;28;19935;-76
2023/05/08 08:13:03;;;;;;;;;;;16.60;57.10;;;;;;5025980;28;20338;-76
2023/05/08 08:15:28;;;;;;;;;;;16.60;57.10;;;;;;5008141;28;19921;-75
2023/05/08 08:17:54;;;;;;;;;;;16.60;57.00;;;;;;5007078;28;19931;-76
2023/05/08 08:20:19;;;;;;;;;;;16.70;57.00;;;;;;5010486;28;19925;-75
2023/05/08 08:22:44;;;;;;;;;;;16.70;57.00;;;;;;5010518;28;20391;-76
2023/05/08 08:25:10;;;;;;;;;;;16.70;56.90;;;;;;5005918;28;19932;-75
2023/05/08 08:27:35;;;;;;;;;;;16.80;56.90;;;;;;5012497;28;20477;-76
2023/05/08 08:30:01;;;;;;;;;;;16.80;56.90;;;;;;5007918;28;19925;-76
2023/05/08 08:32:26;;;;;;;;;;;16.80;56.90;;;;;;5008438;28;19921;-76
2023/05/08 08:34:52;;;;;;;;;;;16.90;56.90;;;;;;5008575;28;19975;-76
2023/05/08 08:37:17;;;;;;;;;;;16.90;56.90;;;;;;5008774;28;20008;-76
2023/05/08 08:39:43;;;;;;;;;;;16.90;56.90;;;;;;5027166;28;20393;-76
2023/05/08 08:42:08;;;;;;;;;;;16.90;56.80;;;;;;4992595;28;19964;-76
2023/05/08 08:44:34;;;;;;;;;;;17.00;56.90;;;;;;5006349;28;19924;-75
2023/05/08 08:46:59;;;;;;;;;;;17.00;56.80;;;;;;5024680;28;19928;-76
2023/05/08 08:49:29;;;;;;;;;;;17.00;56.80;;;;;;5009552;28;20489;-76
2023/05/08 08:51:57;;;;;;;;;;;17.10;56.80;;;;;;5005193;28;20011;-76
2023/05/08 08:54:23;;;;;;;;;;;17.10;56.80;;;;;;5019191;28;19921;-76
2023/05/08 08:56:49;;;;;;;;;;;17.20;56.80;;;;;;5006993;28;19971;-77
2023/05/08 08:59:14;;;;;;;;;;;17.20;56.80;;;;;;5011816;28;19921;-76
2023/05/08 09:01:40;;;;;;;;;;;17.30;56.70;;;;;;5014044;28;19925;-76
2023/05/08 09:04:06;;;;;;;;;;;17.30;56.70;;;;;;5011431;28;20342;-75
2023/05/08 09:06:34;;;;;;;;;;;17.40;56.60;;;;;;5014928;28;19916;-76
2023/05/08 09:09:00;;;;;;;;;;;17.40;56.60;;;;;;5014331;28;19932;-76
2023/05/08 09:11:26;;;;;;;;;;;17.50;56.50;;;;;;5013267;28;19916;-75
2023/05/08 09:13:51;;;;;;;;;;;17.50;56.50;;;;;;5012487;28;20000;-76
2023/05/08 09:16:17;;;;;;;;;;;17.60;56.60;;;;;;5013620;28;20598;-75
2023/05/08 09:18:42;;;;;;;;;;;17.60;56.50;;;;;;5011311;28;19924;-75
2023/05/08 09:21:07;;;;;;;;;;;17.70;56.40;;;;;;5014056;28;19916;-76
2023/05/08 09:23:36;;;;;;;;;;;17.80;56.40;;;;;;5016372;28;20023;-76
2023/05/08 09:26:01;;;;;;;;;;;17.80;56.30;;;;;;5009735;28;19921;-77
2023/05/08 09:28:27;;;;;;;;;;;17.90;56.30;;;;;;4997497;28;19924;-76
2023/05/08 09:30:53;;;;;;;;;;;17.90;56.20;;;;;;5024444;28;19924;-75
2023/05/08 09:33:19;;;;;;;;;;;18.00;56.20;;;;;;5007718;28;21476;-76
2023/05/08 09:35:47;;;;;;;;;;;18.00;56.20;;;;;;4998912;28;20023;-77
2023/05/08 09:38:45;;;;;;;;;;;18.10;56.20;;;;;;5028587;28;19925;-76
2023/05/08 09:41:13;;;;;;;;;;;18.20;56.20;;;;;;5009467;28;19925;-76
2023/05/08 09:43:38;;;;;;;;;;;18.20;56.10;;;;;;5029531;28;19920;-76
2023/05/08 09:46:22;;;;;;;;;;;18.30;56.10;;;;;;5027408;28;20438;-76
2023/05/08 09:48:48;;;;;;;;;;;18.40;56.00;;;;;;5030867;28;19921;-76
2023/05/08 09:51:13;;;;;;;;;;;18.40;55.90;;;;;;4996355;28;19921;-76
2023/05/08 09:53:39;;;;;;;;;;;18.50;55.90;;;;;;4995351;28;19928;-75
2023/05/08 09:56:05;;;;;;;;;;;18.60;55.90;;;;;;5009418;28;19983;-75
2023/05/08 09:58:50;;;;;;;;;;;18.70;55.90;;;;;;4998601;28;19943;-76
2023/05/08 10:04:32;;;;;;;;;;;18.90;55.70;;;;;;5012400;28;19928;-77
2023/05/08 10:06:58;;;;;;;;;;;19.00;55.60;;;;;;5007171;28;19921;-77
2023/05/08 10:09:23;;;;;;;;;;;19.10;55.60;;;;;;4994652;28;20442;-77
2023/05/08 10:11:53;;;;;;;;;;;19.10;55.50;;;;;;5006408;28;19921;-77
2023/05/08 10:14:19;;;;;;;;;;;19.20;55.50;;;;;;4992898;28;21797;-76
2023/05/08 10:16:44;;;;;;;;;;;19.20;55.50;;;;;;4976675;28;20016;-76
2023/05/08 10:19:14;;;;;;;;;;;19.20;55.50;;;;;;5006725;28;19921;-77
2023/05/08 10:21:41;;;;;;;;;;;19.20;55.40;;;;;;5009905;28;19918;-76
2023/05/08 10:24:08;;;;;;;;;;;19.30;55.40;;;;;;4993479;28;19924;-77
2023/05/08 10:26:34;;;;;;;;;;;19.40;55.40;;;;;;5004731;28;19936;-76
2023/05/08 10:29:03;;;;;;;;;;;19.40;55.40;;;;;;4986475;28;19925;-79
2023/05/08 10:31:39;;;;;;;;;;;19.40;55.30;;;;;;4991587;28;20378;-77
2023/05/08 10:34:07;;;;;;;;;;;19.50;55.30;;;;;;5005425;28;19953;-78
2023/05/08 10:36:33;;;;;;;;;;;19.50;55.30;;;;;;4996959;28;20361;-77
2023/05/08 10:38:59;;;;;;;;;;;19.60;55.30;;;;;;4992988;28;19922;-77
2023/05/08 10:41:25;;;;;;;;;;;19.60;55.30;;;;;;4983236;28;20446;-77
2023/05/08 10:43:50;;;;;;;;;;;19.60;55.20;;;;;;4996205;28;19941;-75
2023/05/08 10:46:21;;;;;;;;;;;19.60;55.20;;;;;;4997426;28;20009;-76
2023/05/08 10:48:55;;;;;;;;;;;19.70;55.30;;;;;;4996647;28;19921;-77
2023/05/08 10:51:39;;;;;;;;;;;19.70;55.20;;;;;;5008953;28;20403;-77
2023/05/08 10:54:05;;;;;;;;;;;19.70;55.20;;;;;;5008693;28;19936;-77
2023/05/08 10:56:31;;;;;;;;;;;19.80;55.20;;;;;;4995659;28;20375;-77
2023/05/08 10:58:56;;;;;;;;;;;19.80;55.10;;;;;;5010676;28;19999;-77
2023/05/08 11:01:22;;;;;;;;;;;19.80;55.20;;;;;;4993525;28;19983;-75
2023/05/08 11:03:49;;;;;;;;;;;19.80;55.10;;;;;;5024656;28;19925;-77
2023/05/08 11:06:15;;;;;;;;;;;19.80;55.10;;;;;;5013272;28;19960;-77
2023/05/08 11:08:50;;;;;;;;;;;19.80;55.10;;;;;;5009611;28;20008;-77
2023/05/08 11:11:29;;;;;;;;;;;19.90;55.20;;;;;;4998308;28;19921;-77
2023/05/08 11:13:58;;;;;;;;;;;19.90;55.10;;;;;;5011219;28;19925;-78
2023/05/08 11:16:43;;;;;;;;;;;19.90;55.10;;;;;;4983844;28;19947;-74
2023/05/08 11:19:14;;;;;;;;;;;19.80;55.10;;;;;;4999524;28;20399;-76
2023/05/08 11:21:40;;;;;;;;;;;19.90;55.20;;;;;;5007342;28;19921;-75
2023/05/08 11:24:08;;;;;;;;;;;19.90;55.10;;;;;;5010022;28;19928;-76
2023/05/08 11:26:38;;;;;;;;;;;20.00;55.20;;;;;;4998546;28;19916;-76
2023/05/08 11:29:06;;;;;;;;;;;20.00;55.10;;;;;;5009465;28;20008;-75
2023/05/08 11:31:51;;;;;;;;;;;20.10;55.10;;;;;;4999568;28;19927;-75
2023/05/08 11:34:35;;;;;;;;;;;20.20;55.10;;;;;;5006440;28;19921;-76
2023/05/08 11:37:01;;;;;;;;;;;20.20;55.00;;;;;;5008825;28;19921;-76
2023/05/08 11:39:26;;;;;;;;;;;20.30;55.00;;;;;;5008329;28;19932;-76
2023/05/08 11:41:52;;;;;;;;;;;20.40;54.90;;;;;;5026580;28;19921;-76
2023/05/08 11:44:19;;;;;;;;;;;20.50;55.00;;;;;;5010426;28;20399;-76
2023/05/08 11:46:51;;;;;;;;;;;20.50;54.80;;;;;;5008049;28;19929;-76
2023/05/08 11:49:17;;;;;;;;;;;20.60;54.80;;;;;;5025584;28;20020;-76
2023/05/08 11:51:45;;;;;;;;;;;20.70;54.80;;;;;;5010033;28;19954;-76
2023/05/08 11:54:13;;;;;;;;;;;20.80;54.70;;;;;;5008168;28;19920;-76
2023/05/08 11:56:39;;;;;;;;;;;20.90;54.60;;;;;;5014638;28;20406;-76
2023/05/08 11:59:04;;;;;;;;;;;21.00;54.60;;;;;;5025832;28;19949;-76
2023/05/08 12:01:30;;;;;;;;;;;21.10;54.50;;;;;;4992253;28;19928;-78
2023/05/08 12:04:00;;;;;;;;;;;21.20;54.40;;;;;;4996445;28;20761;-76
2023/05/08 12:06:26;;;;;;;;;;;21.40;54.30;;;;;;4995198;28;20536;-76
2023/05/08 12:08:52;;;;;;;;;;;21.50;54.20;;;;;;5023642;28;20434;-76
2023/05/08 12:11:21;;;;;;;;;;;21.60;54.10;;;;;;4998720;28;19917;-78
2023/05/08 12:13:48;;;;;;;;;;;21.80;54.10;;;;;;5007636;28;19928;-77
2023/05/08 12:16:14;;;;;;;;;;;22.00;54.00;;;;;;5026522;28;19928;-75
2023/05/08 12:18:41;;;;;;;;;;;22.20;53.80;;;;;;5007153;28;19920;-76
2023/05/08 12:21:06;;;;;;;;;;;22.40;53.70;;;;;;5028403;28;20023;-77
2023/05/08 12:23:31;;;;;;;;;;;22.70;53.50;;;;;;5029112;28;19921;-76
2023/05/08 12:25:57;;;;;;;;;;;22.90;53.40;;;;;;5027143;28;20518;-76
2023/05/08 12:28:23;;;;;;;;;;;23.10;53.20;;;;;;5025504;28;19925;-77
2023/05/08 12:30:48;;;;;;;;;;;23.40;53.00;;;;;;5008049;28;19931;-76
2023/05/08 12:33:14;;;;;;;;;;;23.60;52.90;;;;;;5008006;28;20466;-77
2023/05/08 12:35:39;;;;;;;;;;;23.90;52.60;;;;;;5012231;28;19921;-76
2023/05/08 12:38:05;;;;;;;;;;;24.10;52.40;;;;;;5008989;28;20429;-76
2023/05/08 12:40:31;;;;;;;;;;;24.30;52.20;;;;;;5011781;28;19921;-77
2023/05/08 12:42:59;;;;;;;;;;;24.50;52.10;;;;;;5012954;28;19925;-76
2023/05/08 12:45:26;;;;;;;;;;;24.70;52.00;;;;;;4999374;28;20028;-77
2023/05/08 12:47:52;;;;;;;;;;;24.90;51.90;;;;;;5011693;28;19929;-77
2023/05/08 12:50:20;;;;;;;;;;;25.10;51.70;;;;;;5011393;28;19982;-76
2023/05/08 12:52:45;;;;;;;;;;;25.20;51.50;;;;;;5015368;28;19929;-76
2023/05/08 12:55:26;;;;;;;;;;;25.40;51.40;;;;;;5010387;28;20828;-77
2023/05/08 12:58:01;;;;;;;;;;;25.40;51.20;;;;;;5012883;28;20327;-77
2023/05/08 13:00:38;;;;;;;;;;;25.50;52.00;;;;;;5030905;28;19928;-77
2023/05/08 13:03:04;;;;;;;;;;;25.60;51.30;;;;;;5004902;28;19921;-76
2023/05/08 13:05:30;;;;;;;;;;;25.70;51.20;;;;;;5015849;28;19928;-79
2023/05/08 13:07:59;;;;;;;;;;;25.80;51.20;;;;;;5029350;28;20370;-77
2023/05/08 13:10:25;;;;;;;;;;;25.90;51.10;;;;;;5012645;28;19932;-77
2023/05/08 13:12:51;;;;;;;;;;;26.00;51.10;;;;;;5027340;28;19917;-76
2023/05/08 13:15:16;;;;;;;;;;;26.10;51.10;;;;;;5011989;28;19917;-77
2023/05/08 13:17:42;;;;;;;;;;;26.10;51.00;;;;;;4996513;28;19985;-77
2023/05/08 13:20:08;;;;;;;;;;;26.10;51.00;;;;;;4996338;28;20340;-77
2023/05/08 13:22:33;;;;;;;;;;;26.20;51.00;;;;;;5028803;28;19920;-77
2023/05/08 13:24:59;;;;;;;;;;;26.20;51.00;;;;;;5028945;28;19928;-78
2023/05/08 13:27:24;;;;;;;;;;;26.30;51.00;;;;;;5028577;28;20629;-77
2023/05/08 13:29:49;;;;;;;;;;;26.40;51.00;;;;;;5025080;28;19925;-77
2023/05/08 13:32:15;;;;;;;;;;;26.40;51.00;;;;;;5012473;28;19924;-77
2023/05/08 13:34:40;;;;;;;;;;;26.50;50.90;;;;;;5028913;28;19927;-77
2023/05/08 13:37:06;;;;;;;;;;;26.50;50.80;;;;;;5008635;28;20605;-77
2023/05/08 13:39:36;;;;;;;;;;;26.60;50.80;;;;;;5001001;28;19921;-77
2023/05/08 13:42:01;;;;;;;;;;;26.60;50.80;;;;;;5013442;28;19927;-78
2023/05/08 13:44:27;;;;;;;;;;;26.60;50.80;;;;;;4999900;28;19921;-77
2023/05/08 13:46:52;;;;;;;;;;;26.60;50.70;;;;;;5014027;28;19925;-76
2023/05/08 13:49:18;;;;;;;;;;;26.60;50.80;;;;;;5028269;28;20359;-77
2023/05/08 13:51:44;;;;;;;;;;;26.70;50.80;;;;;;5011824;28;19927;-77
2023/05/08 13:54:10;;;;;;;;;;;26.60;50.70;;;;;;5011614;28;19932;-77
2023/05/08 13:56:35;;;;;;;;;;;26.60;50.60;;;;;;5027633;28;19966;-78
2023/05/08 13:59:01;;;;;;;;;;;26.50;50.80;;;;;;5011508;28;19953;-77
2023/05/08 14:01:26;;;;;;;;;;;26.40;50.80;;;;;;5029215;28;19924;-76
2023/05/08 14:03:52;;;;;;;;;;;26.40;50.90;;;;;;5011085;28;19972;-77
2023/05/08 14:06:19;;;;;;;;;;;26.40;50.90;;;;;;5026113;28;19927;-77
2023/05/08 14:08:45;;;;;;;;;;;26.30;50.90;;;;;;5026828;28;19928;-77
2023/05/08 14:11:10;;;;;;;;;;;26.40;50.90;;;;;;4996307;28;19921;-77
2023/05/08 14:13:36;;;;;;;;;;;26.30;50.90;;;;;;5012540;28;19973;-77
2023/05/08 14:16:01;;;;;;;;;;;26.30;51.00;;;;;;5004031;28;19923;-77
2023/05/08 14:18:27;;;;;;;;;;;26.30;51.10;;;;;;4998609;28;20320;-77